createdAt,value
2023-04-14T00:00:54.125Z,100202.53
2023-04-14T00:03:21.026Z,100213.47
2023-04-14T00:05:47.662Z,100219.22
2023-04-14T00:08:14.122Z,100231.41
2023-04-14T00:10:40.716Z,100232.78
2023-04-14T00:13:07.297Z,100231.38
2023-04-14T00:15:33.833Z,100230.28
2023-04-14T00:18:00.439Z,100232.78
2023-04-14T00:20:27.024Z,100233.34
2023-04-14T00:22:53.470Z,100238.81
2023-04-14T00:25:20.001Z,100246.94
2023-04-14T00:27:46.505Z,100243.16
2023-04-14T00:30:14.028Z,100250.72
2023-04-14T00:32:40.526Z,100243.72
2023-04-14T00:35:07.362Z,100244.84
2023-04-14T00:37:33.852Z,100242.44
2023-04-14T00:40:00.304Z,100250.31
2023-04-14T00:42:27.321Z,100252.25
2023-04-14T00:44:53.816Z,100244.56
2023-04-14T00:47:22.990Z,100244.00
2023-04-14T00:49:50.117Z,100247.09
2023-04-14T00:52:16.784Z,100252.69
2023-04-14T00:54:43.418Z,100247.09
2023-04-14T00:57:09.892Z,100255.75
2023-04-14T00:59:37.202Z,100248.59
2023-04-14T01:02:03.844Z,100243.16
2023-04-14T01:04:40.775Z,100247.50
2023-04-14T01:07:28.500Z,100251.16
2023-04-14T01:09:57.235Z,100253.66
2023-04-14T01:12:48.273Z,100255.75
2023-04-14T01:15:32.646Z,100257.16
2023-04-14T01:18:12.336Z,100251.72
2023-04-14T01:20:44.934Z,100246.66
2023-04-14T01:23:16.094Z,100250.72
2023-04-14T01:26:20.082Z,100244.00
2023-04-14T01:29:08.223Z,100246.81
2023-04-14T01:31:41.274Z,100246.25
2023-04-14T01:34:29.412Z,100245.28
2023-04-14T01:37:06.422Z,100241.91
2023-04-14T01:39:41.217Z,100244.56
2023-04-14T01:42:13.871Z,100244.44
2023-04-14T01:44:42.040Z,100242.63
2023-04-14T01:47:12.921Z,100247.94
2023-04-14T01:49:40.499Z,100243.31
2023-04-14T01:52:12.903Z,100251.00
2023-04-14T01:54:41.455Z,100256.06
2023-04-14T01:57:10.524Z,100245.97
2023-04-14T01:59:38.721Z,100248.78
2023-04-14T02:02:08.012Z,100248.78
2023-04-14T02:04:36.967Z,100248.91
2023-04-14T02:07:06.268Z,100259.97
2023-04-14T02:09:34.091Z,100251.28
2023-04-14T02:12:01.335Z,100259.97
2023-04-14T02:14:29.464Z,100252.44
2023-04-14T02:16:59.092Z,100254.50
2023-04-14T02:19:26.963Z,100251.00
2023-04-14T02:21:56.750Z,100253.94
2023-04-14T02:24:23.807Z,100257.16
2023-04-14T02:26:58.676Z,100255.09
2023-04-14T02:29:27.433Z,100258.69
2023-04-14T02:32:02.690Z,100264.75
2023-04-14T02:34:33.859Z,100263.47
2023-04-14T02:37:08.167Z,100269.38
2023-04-14T02:39:42.754Z,100266.13
2023-04-14T02:42:15.832Z,100263.31
2023-04-14T02:44:49.024Z,100263.31
2023-04-14T02:47:37.203Z,100278.34
2023-04-14T02:50:07.381Z,100270.19
2023-04-14T02:52:34.638Z,100270.91
2023-04-14T02:55:03.493Z,100273.00
2023-04-14T02:57:30.838Z,100274.41
2023-04-14T02:59:58.892Z,100270.06
2023-04-14T03:02:25.689Z,100269.09
2023-04-14T03:04:53.448Z,100268.38
2023-04-14T03:07:21.803Z,100263.19
2023-04-14T03:09:50.490Z,100267.53
2023-04-14T03:12:18.644Z,100265.31
2023-04-14T03:14:45.404Z,100279.28
2023-04-14T03:17:14.734Z,100269.22
2023-04-14T03:19:42.455Z,100270.63
2023-04-14T03:22:10.634Z,100268.66
2023-04-14T03:24:38.919Z,100271.06
2023-04-14T03:27:19.044Z,100265.84
2023-04-14T03:29:48.589Z,100262.19
2023-04-14T03:32:17.837Z,100254.09
2023-04-14T03:34:48.328Z,100257.75
2023-04-14T03:37:18.302Z,100251.84
2023-04-14T03:39:50.658Z,100252.00
2023-04-14T03:42:19.994Z,100256.03
2023-04-14T03:44:53.091Z,100260.53
2023-04-14T03:47:23.467Z,100262.34
2023-04-14T03:49:56.238Z,100267.97
2023-04-14T03:52:24.855Z,100267.38
2023-04-14T03:54:54.934Z,100265.81
2023-04-14T03:57:23.338Z,100261.72
2023-04-14T03:59:51.092Z,100257.91
2023-04-14T04:02:19.204Z,100259.00
2023-04-14T04:04:47.029Z,100254.22
2023-04-14T04:07:14.688Z,100252.94
2023-04-14T04:09:43.228Z,100250.94
2023-04-14T04:12:13.194Z,100252.75
2023-04-14T04:14:40.552Z,100254.69
2023-04-14T04:17:09.392Z,100256.88
2023-04-14T04:19:37.850Z,100255.19
2023-04-14T04:22:05.591Z,100252.69
2023-04-14T04:24:37.663Z,100250.72
2023-04-14T04:27:09.895Z,100255.59
2023-04-14T04:29:41.306Z,100259.94
2023-04-14T04:32:07.961Z,100259.81
2023-04-14T04:34:35.257Z,100256.19
2023-04-14T04:37:02.326Z,100251.13
2023-04-14T04:39:29.702Z,100256.03
2023-04-14T04:42:06.814Z,100253.00
2023-04-14T04:44:34.215Z,100252.03
2023-04-14T04:47:01.253Z,100262.50
2023-04-14T04:49:28.237Z,100250.78
2023-04-14T04:51:56.555Z,100252.75
2023-04-14T04:54:23.060Z,100254.16
2023-04-14T04:56:50.060Z,100261.28
2023-04-14T04:59:16.498Z,100251.66
2023-04-14T05:01:42.986Z,100252.22
2023-04-14T05:04:09.570Z,100252.94
2023-04-14T05:06:39.694Z,100255.34
2023-04-14T05:09:06.904Z,100251.81
2023-04-14T05:11:33.932Z,100251.16
2023-04-14T05:14:01.386Z,100255.34
2023-04-14T05:16:28.783Z,100252.56
2023-04-14T05:18:55.532Z,100258.00
2023-04-14T05:21:22.599Z,100265.16
2023-04-14T05:23:49.220Z,100271.03
2023-04-14T05:28:46.208Z,100273.44
2023-04-14T05:31:12.902Z,100265.72
2023-04-14T05:33:40.191Z,100265.91
2023-04-14T05:36:09.666Z,100259.31
2023-04-14T05:38:43.219Z,100266.28
2023-04-14T05:41:09.776Z,100261.69
2023-04-14T05:43:37.284Z,100266.59
2023-04-14T05:46:04.161Z,100266.88
2023-04-14T05:48:33.113Z,100269.13
2023-04-14T05:50:59.795Z,100270.00
2023-04-14T05:53:27.475Z,100277.41
2023-04-14T05:55:54.337Z,100271.63
2023-04-14T05:58:21.600Z,100272.34
2023-04-14T06:00:48.091Z,100273.31
2023-04-14T06:03:16.390Z,100275.59
2023-04-14T06:05:43.216Z,100271.09
2023-04-14T06:08:09.653Z,100273.75
2023-04-14T06:10:36.347Z,100270.56
2023-04-14T06:13:04.067Z,100267.91
2023-04-14T06:15:31.121Z,100276.31
2023-04-14T06:17:57.684Z,100277.31
2023-04-14T06:20:24.364Z,100274.50
2023-04-14T06:22:50.898Z,100270.59
2023-04-14T06:25:17.417Z,100265.53
2023-04-14T06:27:43.961Z,100272.28
2023-04-14T06:30:10.845Z,100282.94
2023-04-14T06:32:37.555Z,100287.94
2023-04-14T06:35:05.105Z,100282.34
2023-04-14T06:37:32.320Z,100278.44
2023-04-14T06:39:58.913Z,100285.59
2023-04-14T06:42:25.722Z,100283.66
2023-04-14T06:44:52.372Z,100274.66
2023-04-14T06:47:20.165Z,100277.59
2023-04-14T06:49:46.677Z,100285.72
2023-04-14T06:52:13.270Z,100276.34
2023-04-14T06:54:39.849Z,100273.41
2023-04-14T06:57:06.318Z,100274.09
2023-04-14T06:59:32.836Z,100279.88
2023-04-14T07:01:59.770Z,100286.03
2023-04-14T07:04:26.656Z,100284.63
2023-04-14T07:06:53.239Z,100286.88
2023-04-14T07:09:20.813Z,100277.63
2023-04-14T07:11:47.387Z,100280.56
2023-04-14T07:14:14.072Z,100276.34
2023-04-14T07:16:40.779Z,100279.88
2023-04-14T07:19:07.732Z,100276.38
2023-04-14T07:21:34.680Z,100280.44
2023-04-14T07:24:01.576Z,100286.88
2023-04-14T07:26:28.395Z,100279.88
2023-04-14T07:28:55.661Z,100285.59
2023-04-14T07:31:22.454Z,100282.09
2023-04-14T07:33:49.350Z,100286.31
2023-04-14T07:36:15.839Z,100294.97
2023-04-14T07:38:43.710Z,100302.41
2023-04-14T07:41:10.185Z,100291.63
2023-04-14T07:43:36.902Z,100298.91
2023-04-14T07:46:05.262Z,100303.41
2023-04-14T07:48:33.832Z,100297.41
2023-04-14T07:51:00.429Z,100298.50
2023-04-14T07:53:27.388Z,100313.06
2023-04-14T07:55:53.877Z,100308.44
2023-04-14T07:58:21.614Z,100310.94
2023-04-14T08:00:50.035Z,100308.41
2023-04-14T08:03:17.232Z,100311.47
2023-04-14T08:05:44.136Z,100308.38
2023-04-14T08:08:10.791Z,100306.00
2023-04-14T08:10:41.886Z,100309.47
2023-04-14T08:13:08.798Z,100308.88
2023-04-14T08:15:35.707Z,100303.28
2023-04-14T08:18:02.365Z,100301.41
2023-04-14T08:20:29.210Z,100298.91
2023-04-14T08:22:57.289Z,100300.72
2023-04-14T08:25:24.120Z,100305.91
2023-04-14T08:27:51.216Z,100305.84
2023-04-14T08:30:17.734Z,100319.16
2023-04-14T08:32:44.238Z,100317.63
2023-04-14T08:35:41.015Z,100312.63
2023-04-14T08:37:57.314Z,100308.50
2023-04-14T08:40:29.049Z,100300.69
2023-04-14T08:42:57.056Z,100291.50
2023-04-14T08:45:23.974Z,100294.06
2023-04-14T08:47:54.465Z,100290.41
2023-04-14T08:50:25.541Z,100288.63
2023-04-14T08:52:56.042Z,100285.84
2023-04-14T08:55:24.196Z,100279.81
2023-04-14T08:57:51.249Z,100279.13
2023-04-14T09:00:19.527Z,100278.00
2023-04-14T09:02:47.485Z,100279.72
2023-04-14T09:05:15.571Z,100278.44
2023-04-14T09:07:42.783Z,100283.09
2023-04-14T09:10:11.669Z,100279.56
2023-04-14T09:12:42.252Z,100274.81
2023-04-14T09:15:09.499Z,100283.19
2023-04-14T09:17:36.978Z,100279.56
2023-04-14T09:20:37.780Z,100272.00
2023-04-14T09:22:51.243Z,100274.94
2023-04-14T09:25:19.767Z,100280.94
2023-04-14T09:27:46.238Z,100276.31
2023-04-14T09:30:13.234Z,100270.19
2023-04-14T09:32:40.399Z,100270.31
2023-04-14T09:35:07.764Z,100274.47
2023-04-14T09:37:44.633Z,100277.59
2023-04-14T09:40:11.972Z,100274.19
2023-04-14T09:42:40.096Z,100267.78
2023-04-14T09:45:08.380Z,100269.34
2023-04-14T09:47:35.257Z,100258.00
2023-04-14T09:50:03.936Z,100267.53
2023-04-14T09:52:56.736Z,100263.16
2023-04-14T09:55:23.346Z,100255.75
2023-04-14T09:57:51.867Z,100256.75
2023-04-14T10:00:23.980Z,100261.09
2023-04-14T10:03:01.491Z,100270.06
2023-04-14T10:05:32.051Z,100266.41
2023-04-14T10:08:05.399Z,100261.22
2023-04-14T10:10:32.733Z,100257.88
2023-04-14T10:13:00.565Z,100260.13
2023-04-14T10:15:27.675Z,100254.91
2023-04-14T10:17:54.421Z,100266.97
2023-04-14T10:20:21.066Z,100258.59
2023-04-14T10:22:47.996Z,100254.50
2023-04-14T10:25:15.425Z,100256.06
2023-04-14T10:27:43.296Z,100253.94
2023-04-14T10:30:10.220Z,100257.63
2023-04-14T10:32:40.435Z,100248.09
2023-04-14T10:35:10.528Z,100246.94
2023-04-14T10:37:37.173Z,100241.22
2023-04-14T10:40:06.904Z,100248.47
2023-04-14T10:42:56.313Z,100243.47
2023-04-14T10:45:22.987Z,100241.06
2023-04-14T10:47:50.325Z,100239.69
2023-04-14T10:50:18.600Z,100237.41
2023-04-14T10:52:58.864Z,100233.22
2023-04-14T10:55:27.995Z,100230.00
2023-04-14T10:58:05.320Z,100231.41
2023-04-14T11:00:32.363Z,100230.00
2023-04-14T11:03:02.663Z,100229.44
2023-04-14T11:05:32.524Z,100221.31
2023-04-14T11:08:02.469Z,100230.56
2023-04-14T11:10:32.599Z,100229.16
2023-04-14T11:13:08.378Z,100214.56
2023-04-14T11:16:02.596Z,100226.88
2023-04-14T11:18:45.296Z,100224.91
2023-04-14T11:21:15.577Z,100221.00
2023-04-14T11:23:43.630Z,100221.84
2023-04-14T11:26:12.331Z,100229.97
2023-04-14T11:28:42.025Z,100213.59
2023-04-14T11:31:12.121Z,100220.72
2023-04-14T11:33:40.105Z,100227.69
2023-04-14T11:36:09.374Z,100216.53
2023-04-14T11:38:40.916Z,100218.75
2023-04-14T11:41:08.329Z,100215.13
2023-04-14T11:43:35.075Z,100215.69
2023-04-14T11:46:05.166Z,100216.78
2023-04-14T11:48:31.732Z,100220.25
2023-04-14T11:51:03.331Z,100213.41
2023-04-14T11:53:30.657Z,100221.09
2023-04-14T11:55:57.580Z,100214.69
2023-04-14T11:58:26.707Z,100223.38
2023-04-14T12:00:56.248Z,100230.47
2023-04-14T12:03:28.167Z,100221.78
2023-04-14T12:06:03.351Z,100219.56
2023-04-14T12:08:31.545Z,100209.22
2023-04-14T12:10:58.948Z,100202.09
2023-04-14T12:13:27.017Z,100206.41
2023-04-14T12:15:54.436Z,100203.06
2023-04-14T12:18:22.386Z,100207.41
2023-04-14T12:20:54.674Z,100198.72
2023-04-14T12:23:21.877Z,100194.81
2023-04-14T12:25:52.534Z,100199.00
2023-04-14T12:28:24.718Z,100193.53
2023-04-14T12:30:52.990Z,100192.69
2023-04-14T12:33:23.344Z,100194.94
2023-04-14T12:35:53.734Z,100191.28
2023-04-14T12:38:26.352Z,100193.81
2023-04-14T12:40:52.921Z,100188.78
2023-04-14T12:43:31.412Z,100188.50
2023-04-14T12:45:58.782Z,100181.78
2023-04-14T12:48:46.720Z,100185.13
2023-04-14T12:51:18.667Z,100172.13
2023-04-14T12:53:47.503Z,100172.13
2023-04-14T12:56:27.390Z,100172.00
2023-04-14T12:58:54.309Z,100175.63
2023-04-14T13:01:21.794Z,100174.66
2023-04-14T13:03:51.825Z,100167.84
2023-04-14T13:06:22.964Z,100168.38
2023-04-14T13:08:51.201Z,100165.28
2023-04-14T13:11:19.553Z,100161.78
2023-04-14T13:13:46.370Z,100163.19
2023-04-14T13:16:16.932Z,100158.31
2023-04-14T13:18:47.781Z,100159.56
2023-04-14T13:21:14.860Z,100152.16
2023-04-14T13:23:41.716Z,100151.03
2023-04-14T13:26:08.602Z,100155.09
2023-04-14T13:28:35.202Z,100149.34
2023-04-14T13:31:01.696Z,100144.47
2023-04-14T13:33:28.426Z,100147.97
2023-04-14T13:35:56.404Z,100142.50
2023-04-14T13:38:22.901Z,100141.94
2023-04-14T13:40:49.413Z,100138.44
2023-04-14T13:43:18.146Z,100140.56
2023-04-14T13:45:44.962Z,100135.63
2023-04-14T13:48:11.512Z,100136.34
2023-04-14T13:50:37.986Z,100131.00
2023-04-14T13:53:04.509Z,100134.38
2023-04-14T13:55:31.328Z,100132.84
2023-04-14T13:57:57.878Z,100128.75
2023-04-14T14:00:24.526Z,100130.47
2023-04-14T14:02:52.213Z,100120.66
2023-04-14T14:05:18.817Z,100125.84
2023-04-14T14:07:45.584Z,100114.66
2023-04-14T14:10:12.358Z,100123.72
2023-04-14T14:12:38.897Z,100119.69
2023-04-14T14:15:06.126Z,100118.81
2023-04-14T14:17:32.793Z,100114.38
2023-04-14T14:19:59.662Z,100120.06
2023-04-14T14:22:26.643Z,100113.25
2023-04-14T14:24:58.594Z,100124.72
2023-04-14T14:27:31.672Z,100121.63
2023-04-14T14:29:58.200Z,100118.28
2023-04-14T14:32:24.699Z,100115.47
2023-04-14T14:34:51.188Z,100112.25
2023-04-14T14:37:18.771Z,100116.56
2023-04-14T14:39:45.380Z,100113.09
2023-04-14T14:42:11.979Z,100104.28
2023-04-14T14:44:38.541Z,100104.84
2023-04-14T14:47:06.719Z,100100.22
2023-04-14T14:49:33.390Z,100094.47
2023-04-14T14:52:02.458Z,100098.69
2023-04-14T14:54:28.925Z,100099.66
2023-04-14T14:56:56.508Z,100098.41
2023-04-14T14:59:23.036Z,100094.09
2023-04-14T15:01:49.659Z,100095.03
2023-04-14T15:04:16.312Z,100092.25
2023-04-14T15:06:43.061Z,100091.41
2023-04-14T15:09:09.568Z,100089.16
2023-04-14T15:11:38.272Z,100088.03
2023-04-14T15:14:04.799Z,100082.88
2023-04-14T15:16:31.349Z,100091.41
2023-04-14T15:18:58.035Z,100092.25
2023-04-14T15:21:24.584Z,100089.03
2023-04-14T15:23:51.058Z,100097.41
2023-04-14T15:26:17.628Z,100095.59
2023-04-14T15:28:44.100Z,100092.09
2023-04-14T15:31:10.766Z,100103.44
2023-04-14T15:33:37.244Z,100098.66
2023-04-14T15:36:03.891Z,100102.31
2023-04-14T15:38:30.410Z,100089.28
2023-04-14T15:40:56.894Z,100096.97
2023-04-14T15:43:23.516Z,100089.44
2023-04-14T15:45:50.223Z,100100.06
2023-04-14T15:48:16.723Z,100100.88
2023-04-14T15:50:44.354Z,100092.63
2023-04-14T15:53:11.630Z,100096.28
2023-04-14T15:55:38.362Z,100083.09
2023-04-14T15:58:05.446Z,100094.72
2023-04-14T16:00:32.667Z,100094.84
2023-04-14T16:03:00.975Z,100101.97
2023-04-14T16:05:27.692Z,100104.06
2023-04-14T16:07:54.216Z,100100.03
2023-04-14T16:10:20.632Z,100103.38
2023-04-14T16:12:48.574Z,100099.88
2023-04-14T16:15:15.582Z,100099.72
2023-04-14T16:17:42.404Z,100102.22
2023-04-14T16:20:11.405Z,100106.44
2023-04-14T16:22:38.356Z,100099.00
2023-04-14T16:25:05.832Z,100102.81
2023-04-14T16:27:33.028Z,100098.81
2023-04-14T16:29:59.899Z,100095.22
2023-04-14T16:32:27.651Z,100092.19
2023-04-14T16:34:54.217Z,100096.06
2023-04-14T16:37:21.105Z,100103.50
2023-04-14T16:39:47.655Z,100095.53
2023-04-14T16:42:18.588Z,100093.41
2023-04-14T16:44:45.343Z,100100.78
2023-04-14T16:47:12.051Z,100095.22
2023-04-14T16:49:38.534Z,100088.97
2023-04-14T16:52:05.075Z,100092.28
2023-04-14T16:54:31.809Z,100092.28
2023-04-14T16:56:58.306Z,100087.97
2023-04-14T16:59:24.812Z,100089.78
2023-04-14T17:01:51.485Z,100086.38
2023-04-14T17:04:18.341Z,100088.13
2023-04-14T17:06:45.996Z,100100.97
2023-04-14T17:09:12.529Z,100102.47
2023-04-14T17:11:42.062Z,100087.38
2023-04-14T17:14:08.676Z,100088.09
2023-04-14T17:16:35.251Z,100097.91
2023-04-14T17:19:01.831Z,100108.88
2023-04-14T17:21:28.673Z,100096.94
2023-04-14T17:23:55.393Z,100096.94
2023-04-14T17:26:23.623Z,100092.94
2023-04-14T17:28:50.302Z,100096.94
2023-04-14T17:31:17.107Z,100098.59
2023-04-14T17:33:45.180Z,100098.31
2023-04-14T17:36:14.672Z,100098.19
2023-04-14T17:38:42.802Z,100099.00
2023-04-14T17:41:11.038Z,100096.78
2023-04-14T17:43:41.169Z,100096.94
2023-04-14T17:46:11.784Z,100099.19
2023-04-14T17:48:38.403Z,100090.94
2023-04-14T17:51:05.176Z,100093.31
2023-04-14T17:53:31.980Z,100089.66
2023-04-14T17:55:58.483Z,100084.78
2023-04-14T17:58:26.297Z,100088.97
2023-04-14T18:00:53.752Z,100096.44
2023-04-14T18:03:20.360Z,100099.09
2023-04-14T18:05:47.065Z,100086.53
2023-04-14T18:08:14.227Z,100089.03
2023-04-14T18:10:41.003Z,100089.47
2023-04-14T18:13:07.421Z,100091.84
2023-04-14T18:15:33.870Z,100099.44
2023-04-14T18:18:00.434Z,100095.78
2023-04-14T18:20:27.066Z,100093.28
2023-04-14T18:22:54.821Z,100095.94
2023-04-14T18:25:21.633Z,100095.78
2023-04-14T18:30:17.869Z,100107.22
2023-04-14T18:32:44.686Z,100103.72
2023-04-14T18:35:11.811Z,100101.09
2023-04-14T18:37:39.814Z,100103.91
2023-04-14T18:40:07.387Z,100100.53
2023-04-14T18:42:35.921Z,100092.13
2023-04-14T18:45:03.491Z,100105.84
2023-04-14T18:47:30.311Z,100102.47
2023-04-14T18:49:56.860Z,100105.81
2023-04-14T18:52:23.315Z,100108.06
2023-04-14T18:54:49.893Z,100101.63
2023-04-14T18:57:16.456Z,100117.94
2023-04-14T18:59:42.934Z,100102.84
2023-04-14T19:02:13.109Z,100086.91
2023-04-14T19:04:40.804Z,100094.63
2023-04-14T19:07:07.285Z,100082.59
2023-04-14T19:09:36.025Z,100077.03
2023-04-14T19:12:02.612Z,100070.88
2023-04-14T19:14:29.492Z,100075.06
2023-04-14T19:16:55.911Z,100071.72
2023-04-14T19:19:22.364Z,100068.06
2023-04-14T19:21:48.813Z,100057.03
2023-04-14T19:24:15.551Z,100056.50
2023-04-14T19:26:42.058Z,100045.88
2023-04-14T19:29:08.693Z,100049.97
2023-04-14T19:31:35.612Z,100049.22
2023-04-14T19:34:02.210Z,100046.25
2023-04-14T19:36:29.308Z,100044.44
2023-04-14T19:38:55.997Z,100038.50
2023-04-14T19:41:22.464Z,100042.66
2023-04-14T19:43:49.044Z,100046.31
2023-04-14T19:46:16.630Z,100050.06
2023-04-14T19:48:44.324Z,100050.38
2023-04-14T19:51:11.373Z,100047.16
2023-04-14T19:53:37.853Z,100054.44
2023-04-14T19:56:05.658Z,100049.31
2023-04-14T19:58:32.891Z,100047.09
2023-04-14T20:01:00.916Z,100059.47
2023-04-14T20:03:28.278Z,100072.44
2023-04-14T20:05:56.717Z,100075.00
2023-04-14T20:08:24.440Z,100056.41
2023-04-14T20:10:53.150Z,100040.94
2023-04-14T20:13:21.290Z,100033.25
2023-04-14T20:15:49.227Z,100035.34
2023-04-14T20:18:18.867Z,100038.28
2023-04-14T20:20:46.879Z,100047.25
2023-04-14T20:23:13.460Z,100040.41
2023-04-14T20:25:40.213Z,100047.41
2023-04-14T20:28:07.628Z,100053.81
2023-04-14T20:30:34.214Z,100040.25
2023-04-14T20:33:06.406Z,100030.59
2023-04-14T20:35:37.297Z,100033.81
2023-04-14T20:38:04.629Z,100044.03
2023-04-14T20:40:31.178Z,100028.38
2023-04-14T20:42:57.784Z,100021.78
2023-04-14T20:45:25.279Z,99991.72
2023-04-14T20:47:51.878Z,99992.56
2023-04-14T20:50:18.870Z,99993.00
2023-04-14T20:52:45.497Z,99993.56
2023-04-14T20:55:13.455Z,99992.59
2023-04-14T20:57:43.184Z,100007.28
2023-04-14T21:00:15.544Z,99999.16
2023-04-14T21:02:43.506Z,100007.69
2023-04-14T21:05:11.378Z,100002.38
2023-04-14T21:07:39.735Z,100003.19
2023-04-14T21:10:08.674Z,99993.44
2023-04-14T21:12:36.311Z,99971.88
2023-04-14T21:15:48.212Z,99967.72
2023-04-14T21:18:09.724Z,99975.53
2023-04-14T21:20:36.813Z,99983.94
2023-04-14T21:23:03.276Z,99987.69
2023-04-14T21:25:30.201Z,99985.75
2023-04-14T21:27:56.707Z,99984.78
2023-04-14T21:30:23.447Z,99988.56
2023-04-14T21:32:50.049Z,99981.03
2023-04-14T21:35:17.041Z,99975.41
2023-04-14T21:37:43.487Z,99974.75
2023-04-14T21:40:11.116Z,99975.00
2023-04-14T21:42:37.627Z,99976.16
2023-04-14T21:45:06.296Z,99970.41
2023-04-14T21:47:32.999Z,99972.50
2023-04-14T21:49:59.541Z,99962.31
2023-04-14T21:52:26.187Z,99962.88
2023-04-14T21:54:52.695Z,99960.75
2023-04-14T21:57:45.556Z,99949.88
2023-04-14T22:00:13.009Z,99947.06
2023-04-14T22:02:40.037Z,99947.94
2023-04-14T22:05:07.224Z,99940.91
2023-04-14T22:07:33.627Z,99941.19
2023-04-14T22:10:00.759Z,99937.44
2023-04-14T22:12:27.639Z,99945.91
2023-04-14T22:14:54.062Z,99950.38
2023-04-14T22:17:20.641Z,99958.34
2023-04-14T22:19:47.074Z,99942.31
2023-04-14T22:22:13.547Z,99938.09
2023-04-14T22:24:39.950Z,99941.75
2023-04-14T22:27:06.515Z,99933.34
2023-04-14T22:29:32.947Z,99942.31
2023-04-14T22:31:59.372Z,99933.94
2023-04-14T22:34:25.860Z,99935.88
2023-04-14T22:36:52.436Z,99929.31
2023-04-14T22:39:19.245Z,99935.56
2023-04-14T22:41:46.825Z,99932.81
2023-04-14T22:44:13.458Z,99928.34
2023-04-14T22:46:40.072Z,99934.19
2023-04-14T22:49:06.552Z,99929.47
2023-04-14T22:51:33.040Z,99928.63
2023-04-14T22:53:59.612Z,99924.00
2023-04-14T22:56:28.274Z,99936.13
2023-04-14T22:58:57.712Z,99932.00
2023-04-14T23:01:25.194Z,99941.19
2023-04-14T23:03:53.186Z,99940.53
2023-04-14T23:06:20.216Z,99941.47
2023-04-14T23:08:51.013Z,99930.28
2023-04-14T23:11:20.770Z,99938.78
2023-04-14T23:13:47.839Z,99934.47
2023-04-14T23:16:16.674Z,99927.78
2023-04-14T23:18:43.517Z,99930.56
2023-04-14T23:21:10.060Z,99924.41
2023-04-14T23:23:36.651Z,99919.41
2023-04-14T23:26:03.219Z,99914.63
2023-04-14T23:28:29.694Z,99912.22
2023-04-14T23:30:56.572Z,99917.41
2023-04-14T23:33:23.018Z,99931.41
2023-04-14T23:35:49.518Z,99916.75
2023-04-14T23:38:17.851Z,99944.56
2023-04-14T23:40:46.083Z,99922.50
2023-04-14T23:43:12.536Z,99925.53
2023-04-14T23:45:39.060Z,99927.78
2023-04-14T23:48:06.813Z,99921.78
2023-04-14T23:50:58.673Z,99920.22
2023-04-14T23:53:20.112Z,99914.63
2023-04-14T23:55:47.594Z,99922.72
2023-04-14T23:58:26.014Z,99925.25
